Ester, Alaska
Current Conditions -  °F | °C
As of 3:53 AM on Wednesday 22 Oct 2014 (Local Time) from PAFA Reporting Station
Broken Clouds Broken Clouds  
Wind Chill: 19°   Ceiling: 8500
Heat Index: 27°   Visibility: 10mi
Dew Point: 18°   Wind: 7mph
Humidity: 69%   Direction: 10°N
Pressure: 29.5"   Gusts: NA
Location:  64.85°N, 148.02°W
Report Text: PAFA 221153Z 01006KT 10SM SCT060 BKN085 BKN200 M03/M08 A2950 RMK AO2 SLP997 T10281078 11006 21039 51005
Loading
Personal Weather Stations






























Interactive Weather Map
Tropical Storm Tracking
New forecast layout! Learn more

10-Day Weather Forecast

Advertisements
Track Severe Weather on mobile